createdAt,value
2023-01-29T00:03:32.031Z,98898.25
2023-01-29T00:08:52.924Z,98898.63
2023-01-29T00:14:13.841Z,98905.59
2023-01-29T00:19:34.715Z,98906.09
2023-01-29T00:24:55.703Z,98894.38
2023-01-29T00:30:19.702Z,98889.19
2023-01-29T00:35:41.495Z,98892.22
2023-01-29T00:41:31.379Z,98892.97
2023-01-29T00:46:52.279Z,98889.75
2023-01-29T00:52:25.510Z,98891.47
2023-01-29T00:57:46.613Z,98909.41
2023-01-29T01:03:07.755Z,98875.28
2023-01-29T01:08:47.669Z,98865.06
2023-01-29T01:14:08.490Z,98873.28
2023-01-29T01:19:29.480Z,98861.81
2023-01-29T01:24:50.434Z,98857.28
2023-01-29T01:30:13.053Z,98863.00
2023-01-29T01:35:34.204Z,98868.72
2023-01-29T01:40:54.857Z,98875.22
2023-01-29T01:46:15.731Z,98870.97
2023-01-29T01:51:39.016Z,98862.72
2023-01-29T01:57:09.406Z,98859.50
2023-01-29T02:02:48.477Z,98855.28
2023-01-29T02:08:28.689Z,98850.56
2023-01-29T02:13:53.807Z,98846.06
2023-01-29T02:19:34.188Z,98840.59
2023-01-29T02:25:29.784Z,98840.31
2023-01-29T02:31:03.161Z,98852.78
2023-01-29T02:36:46.092Z,98849.50
2023-01-29T02:42:21.849Z,98848.53
2023-01-29T02:47:52.969Z,98849.50
2023-01-29T02:53:32.465Z,98850.00
2023-01-29T02:58:59.110Z,98876.38
2023-01-29T03:04:24.552Z,98876.63
2023-01-29T03:09:48.646Z,98868.16
2023-01-29T03:15:11.646Z,98878.84
2023-01-29T03:20:36.206Z,98867.34
2023-01-29T03:26:16.779Z,98870.59
2023-01-29T03:31:56.950Z,98863.09
2023-01-29T03:37:35.016Z,98861.53
2023-01-29T03:43:11.071Z,98856.44
2023-01-29T03:48:36.597Z,98865.16
2023-01-29T03:54:18.961Z,98850.66
2023-01-29T03:59:54.937Z,98858.81
2023-01-29T04:05:45.551Z,98854.31
2023-01-29T04:11:15.453Z,98856.72
2023-01-29T04:16:42.060Z,98859.13
2023-01-29T04:22:37.035Z,98841.84
2023-01-29T04:28:10.651Z,98835.00
2023-01-29T04:33:54.973Z,98831.34
2023-01-29T04:39:30.375Z,98824.53
2023-01-29T04:44:58.570Z,98831.13
2023-01-29T04:50:39.521Z,98823.06
2023-01-29T04:56:32.474Z,98817.72
2023-01-29T05:02:06.890Z,98825.88
2023-01-29T05:07:27.519Z,98816.63
2023-01-29T05:12:55.082Z,98812.34
2023-01-29T05:18:16.222Z,98792.03
2023-01-29T05:23:36.804Z,98794.06
2023-01-29T05:28:57.829Z,98803.75
2023-01-29T05:34:18.526Z,98799.69
2023-01-29T05:39:39.420Z,98804.78
2023-01-29T05:45:00.401Z,98794.66
2023-01-29T05:50:21.575Z,98792.44
2023-01-29T05:55:48.482Z,98795.25
2023-01-29T06:01:14.458Z,98774.34
2023-01-29T06:06:36.218Z,98758.94
2023-01-29T06:11:57.683Z,98753.28
2023-01-29T06:17:18.268Z,98749.03
2023-01-29T06:22:38.972Z,98742.31
2023-01-29T06:27:59.976Z,98748.06
2023-01-29T06:33:20.824Z,98750.00
2023-01-29T06:38:41.988Z,98755.25
2023-01-29T06:44:02.794Z,98753.31
2023-01-29T06:49:23.820Z,98758.78
2023-01-29T06:54:44.596Z,98750.06
2023-01-29T07:00:06.630Z,98764.03
2023-01-29T07:05:27.621Z,98767.03
2023-01-29T07:10:49.278Z,98780.28
2023-01-29T07:16:10.379Z,98785.59
2023-01-29T07:21:31.107Z,98792.38
2023-01-29T07:26:52.022Z,98800.88
2023-01-29T07:32:13.019Z,98820.84
2023-01-29T07:37:33.672Z,98832.09
2023-01-29T07:42:59.406Z,98814.50
2023-01-29T07:48:20.945Z,98808.38
2023-01-29T07:53:42.150Z,98824.13
2023-01-29T07:59:03.386Z,98841.41
2023-01-29T08:04:24.651Z,98845.69
2023-01-29T08:09:48.022Z,98860.91
2023-01-29T08:15:09.472Z,98876.09
2023-01-29T08:20:30.511Z,98868.44
2023-01-29T08:25:51.243Z,98864.69
2023-01-29T08:31:18.228Z,98854.78
2023-01-29T08:36:39.355Z,98862.38
2023-01-29T08:41:59.918Z,98850.38
2023-01-29T08:47:20.470Z,98843.38
2023-01-29T08:52:41.252Z,98850.63
2023-01-29T08:58:04.145Z,98854.88
2023-01-29T09:03:25.026Z,98855.91
2023-01-29T09:08:45.758Z,98845.97
2023-01-29T09:14:06.363Z,98856.47
2023-01-29T09:19:27.089Z,98856.25
2023-01-29T09:24:47.886Z,98840.81
2023-01-29T09:30:09.232Z,98846.72
2023-01-29T09:35:30.166Z,98841.75
2023-01-29T09:40:54.889Z,98844.94
2023-01-29T09:46:23.022Z,98855.75
2023-01-29T09:51:46.803Z,98844.59
2023-01-29T09:57:08.012Z,98841.28
2023-01-29T10:02:53.607Z,98822.22
2023-01-29T10:08:46.769Z,98796.31
2023-01-29T10:14:31.188Z,98783.72
2023-01-29T10:19:51.615Z,98775.72
2023-01-29T10:25:20.437Z,98765.59
2023-01-29T10:30:41.704Z,98770.59
2023-01-29T10:36:04.895Z,98773.53
2023-01-29T10:41:42.494Z,98756.06
2023-01-29T10:47:12.385Z,98744.84
2023-01-29T10:52:55.930Z,98736.41
2023-01-29T10:58:30.018Z,98723.22
2023-01-29T11:04:01.939Z,98709.03
2023-01-29T11:15:07.207Z,98690.88
2023-01-29T11:20:28.356Z,98691.09
2023-01-29T11:25:52.876Z,98688.53
2023-01-29T11:31:18.018Z,98696.59
2023-01-29T11:36:39.769Z,98673.09
2023-01-29T11:42:04.642Z,98669.25
2023-01-29T11:47:29.386Z,98651.56
2023-01-29T11:52:50.311Z,98658.16
2023-01-29T11:58:17.975Z,98630.28
2023-01-29T12:03:41.659Z,98628.34
2023-01-29T12:09:03.174Z,98613.16
2023-01-29T12:14:27.231Z,98594.88
2023-01-29T12:19:56.551Z,98579.59
2023-01-29T12:25:45.388Z,98605.09
2023-01-29T12:31:25.013Z,98602.50
2023-01-29T12:36:55.005Z,98615.22
2023-01-29T12:42:19.275Z,98608.72
2023-01-29T12:47:43.083Z,98579.28
2023-01-29T12:53:10.000Z,98578.06
2023-01-29T12:58:35.161Z,98564.66
2023-01-29T13:04:26.457Z,98555.88
2023-01-29T13:09:50.803Z,98560.59
2023-01-29T13:15:25.386Z,98552.56
2023-01-29T13:20:46.499Z,98547.06
2023-01-29T13:26:07.691Z,98537.31
2023-01-29T13:31:31.647Z,98534.72
2023-01-29T13:36:54.582Z,98547.03
2023-01-29T13:42:37.547Z,98542.53
2023-01-29T13:48:22.347Z,98529.34
2023-01-29T13:53:43.586Z,98519.50
2023-01-29T13:59:05.532Z,98528.22
2023-01-29T14:04:28.398Z,98524.81
2023-01-29T14:09:49.307Z,98518.22
2023-01-29T14:15:21.248Z,98518.13
2023-01-29T14:20:48.650Z,98508.22
2023-01-29T14:26:32.301Z,98486.53
2023-01-29T14:32:14.735Z,98470.75
2023-01-29T14:37:37.242Z,98493.38
2023-01-29T14:43:01.955Z,98494.13
2023-01-29T14:48:35.213Z,98491.16
2023-01-29T14:54:01.772Z,98489.19
2023-01-29T14:59:27.074Z,98491.81
2023-01-29T15:04:52.441Z,98485.19
2023-01-29T15:10:40.533Z,98484.63
2023-01-29T15:16:09.310Z,98483.59
2023-01-29T15:21:30.799Z,98469.16
2023-01-29T15:26:51.924Z,98481.69
2023-01-29T15:32:29.725Z,98471.50
2023-01-29T15:38:01.587Z,98470.34
2023-01-29T15:43:26.873Z,98467.91
2023-01-29T15:48:49.079Z,98469.00
2023-01-29T15:54:10.964Z,98448.16
2023-01-29T15:59:34.742Z,98451.03
2023-01-29T16:04:55.787Z,98442.91
2023-01-29T16:10:18.958Z,98455.78
2023-01-29T16:15:40.896Z,98448.91
2023-01-29T16:21:05.436Z,98444.00
2023-01-29T16:26:27.143Z,98445.84
2023-01-29T16:31:48.195Z,98442.13
2023-01-29T16:37:30.336Z,98449.91
2023-01-29T16:42:52.762Z,98450.91
2023-01-29T16:48:26.526Z,98454.66
2023-01-29T16:53:59.942Z,98457.91
2023-01-29T16:59:26.860Z,98456.19
2023-01-29T17:04:48.166Z,98457.72
2023-01-29T17:10:16.895Z,98452.00
2023-01-29T17:15:43.776Z,98447.00
2023-01-29T17:21:05.052Z,98443.53
2023-01-29T17:26:26.473Z,98439.56
2023-01-29T17:31:47.538Z,98432.63
2023-01-29T17:37:12.666Z,98424.41
2023-01-29T17:42:33.797Z,98409.72
2023-01-29T17:47:54.625Z,98408.97
2023-01-29T17:53:15.964Z,98396.28
2023-01-29T17:58:37.109Z,98382.31
2023-01-29T18:03:57.906Z,98377.84
2023-01-29T18:09:20.662Z,98360.44
2023-01-29T18:14:41.746Z,98352.72
2023-01-29T18:20:03.106Z,98349.50
2023-01-29T18:25:25.722Z,98346.00
2023-01-29T18:30:47.559Z,98348.75
2023-01-29T18:36:08.893Z,98356.97
2023-01-29T18:41:29.794Z,98352.00
2023-01-29T18:46:50.633Z,98352.00
2023-01-29T18:52:11.369Z,98351.28
2023-01-29T18:58:25.089Z,98353.00
2023-01-29T19:03:14.376Z,98374.41
2023-01-29T19:08:35.144Z,98356.00
2023-01-29T19:13:55.992Z,98347.03
2023-01-29T19:19:16.862Z,98364.19
2023-01-29T19:24:39.109Z,98355.97
2023-01-29T19:30:00.516Z,98347.25
2023-01-29T19:35:21.814Z,98339.81
2023-01-29T19:40:42.905Z,98331.31
2023-01-29T19:46:03.910Z,98327.09
2023-01-29T19:51:24.703Z,98325.13
2023-01-29T19:56:45.416Z,98323.38
2023-01-29T20:02:06.550Z,98322.09
2023-01-29T20:07:27.751Z,98315.13
2023-01-29T20:12:48.936Z,98302.94
2023-01-29T20:18:12.105Z,98305.19
2023-01-29T20:23:38.171Z,98313.63
2023-01-29T20:28:59.268Z,98300.44
2023-01-29T20:34:20.071Z,98289.72
2023-01-29T20:39:40.795Z,98283.53
2023-01-29T20:45:01.644Z,98270.09
2023-01-29T20:50:22.284Z,98259.16
2023-01-29T20:55:43.429Z,98272.09
2023-01-29T21:01:11.674Z,98264.13
2023-01-29T21:06:32.447Z,98239.00
2023-01-29T21:11:53.113Z,98238.53
2023-01-29T21:17:13.632Z,98226.84
2023-01-29T21:22:34.634Z,98237.28
2023-01-29T21:27:55.266Z,98227.59
2023-01-29T21:33:16.027Z,98232.06
2023-01-29T21:38:37.059Z,98211.91
2023-01-29T21:43:57.998Z,98207.44
2023-01-29T21:49:19.005Z,98200.00
2023-01-29T21:54:40.104Z,98189.31
2023-01-29T22:00:02.257Z,98188.31
2023-01-29T22:05:26.728Z,98190.81
2023-01-29T22:10:47.934Z,98189.81
2023-01-29T22:16:09.135Z,98179.38
2023-01-29T22:21:30.169Z,98168.69
2023-01-29T22:26:51.298Z,98166.69
2023-01-29T22:32:13.310Z,98143.31
2023-01-29T22:37:33.955Z,98139.34
2023-01-29T22:42:54.684Z,98121.72
2023-01-29T22:48:15.417Z,98116.72
2023-01-29T22:53:44.247Z,98099.31
2023-01-29T22:59:05.460Z,98072.25
2023-01-29T23:04:26.400Z,98060.31
2023-01-29T23:09:46.954Z,98062.28
2023-01-29T23:15:07.982Z,98059.31
2023-01-29T23:20:28.829Z,98038.69
2023-01-29T23:26:08.552Z,98017.56
2023-01-29T23:31:30.056Z,97988.00
2023-01-29T23:36:50.896Z,97970.81
2023-01-29T23:42:11.649Z,97982.72
2023-01-29T23:47:32.513Z,97977.53
2023-01-29T23:52:53.005Z,97978.25
2023-01-29T23:58:13.690Z,97962.81
